Marshfield, VT (05658)

2:59 AM EDT on March 29, 2015 (GMT -0400)
232 over Peacham Pond | | Change Station
CLOSE
Current Station
Personal Weather Station
Location: Marshfield, VT
Elevation: 1693 ft
Nearby Weather Stations

Elev 1693 ft 44.33 °N, 72.28 °W | Updated 348 days ago

Clear
Clear
11 °F
Feels Like 11 °F
N
3
Wind Variable Wind from NW
Gusts mph

Today
High -- | Low -- °F
--% Chance of Precip.
Yesterday
High -- | Low -- °F
Precip. -- in
6:36 AM 7:12 PM
Waxing Gibbous, 69% visible
Pressure 30.16 in
Visibility 10.0 miles
Clouds Clear
Dew Point 5 °F
Humidity 79%
Rainfall in
Snow Depth Not available.
UV 0 out of 12
Pollen .60 out of 12
Air Quality Not available.
Flu Activity Not available.
METAR KMPV 290651Z AUTO 00000KT 10SM CLR M12/M17 A3009 RMK AO2 SLP212 T11171167 $

More Conditions Fewer Conditions

Pressure 30.16 in
Visibility 10.0 miles
Clouds Clear
Dew Point 5 °F
Humidity 79%
Rainfall in
Snow Depth Not available.
UV 0 out of 12
Pollen .60 out of 12
Air Quality Not available.
Flu Activity Not available.
METAR KMPV 290651Z AUTO 00000KT 10SM CLR M12/M17 A3009 RMK AO2 SLP212 T11171167 $

More Conditions Fewer Conditions

10-Day Weather Forecast

Almanac

Astronomy

Mar. 29, 2015 Rise Set
Actual Time
Civil Twilight
Nautical Twilight
Astronomical Twilight
Moon
Length of Visible Light
Length of Day
Tomorrow will be .
, % of the Moon is Illuminated

Today's Extremes

State Highs State Lows

Community

WunderPhotos

Upload Photos

1,809,187 photos uploaded!

WunderBlogs® & News

Nearby

Air Quality

  Air Quality AQ Index Pollutant
Not available.

Snow Depth

Station Depth Elevation

Earthquake Activity

City Distance Mag. Time & Date
Minimum magnitude displayed is 2.5.

Coastal Water Temperatures

Place Temperature

Stations

Nearby Weather Stations

Station Location Temp. Windchill Dew Point Humidity Wind Precip. Elev Updated Type